createdAt,value
2023-04-20T00:01:15.570Z,4.57
2023-04-20T00:05:18.121Z,5.50
2023-04-20T00:09:20.198Z,4.73
2023-04-20T00:13:22.313Z,7.10
2023-04-20T00:17:24.278Z,7.97
2023-04-20T00:21:27.232Z,7.27
2023-04-20T00:25:30.541Z,7.37
2023-04-20T00:29:32.647Z,7.67
2023-04-20T00:33:34.626Z,7.63
2023-04-20T00:37:36.597Z,7.43
2023-04-20T00:41:38.551Z,6.00
2023-04-20T00:45:41.325Z,5.10
2023-04-20T00:49:45.517Z,5.67
2023-04-20T00:53:47.857Z,7.10
2023-04-20T00:57:50.259Z,5.90
2023-04-20T01:01:52.245Z,7.30
2023-04-20T01:05:54.300Z,6.87
2023-04-20T01:09:56.969Z,5.00
2023-04-20T01:13:59.071Z,5.70
2023-04-20T01:18:01.216Z,8.33
2023-04-20T01:22:03.396Z,6.00
2023-04-20T01:26:10.523Z,7.53
2023-04-20T01:30:13.414Z,6.50
2023-04-20T01:34:17.503Z,5.17
2023-04-20T01:38:21.531Z,5.70
2023-04-20T01:42:23.666Z,7.83
2023-04-20T01:46:25.864Z,8.30
2023-04-20T01:50:27.846Z,6.63
2023-04-20T01:54:30.215Z,10.70
2023-04-20T01:58:32.443Z,6.33
2023-04-20T02:02:35.024Z,10.43
2023-04-20T02:06:37.018Z,7.17
2023-04-20T02:10:38.984Z,5.57
2023-04-20T02:14:41.014Z,9.83
2023-04-20T02:18:48.004Z,5.63
2023-04-20T02:22:50.288Z,7.07
2023-04-20T02:26:52.135Z,10.87
2023-04-20T02:30:54.080Z,8.10
2023-04-20T02:34:56.086Z,8.83
2023-04-20T02:39:01.088Z,10.90
2023-04-20T02:43:02.875Z,8.90
2023-04-20T02:47:06.421Z,9.43
2023-04-20T02:51:09.095Z,8.17
2023-04-20T02:55:16.664Z,10.80
2023-04-20T02:59:21.914Z,7.73
2023-04-20T03:03:30.466Z,7.30
2023-04-20T03:07:33.536Z,11.20
2023-04-20T03:11:37.015Z,6.40
2023-04-20T03:15:39.414Z,9.83
2023-04-20T03:20:00.343Z,8.27
2023-04-20T03:24:02.621Z,8.17
2023-04-20T03:28:04.883Z,7.00
2023-04-20T03:32:07.204Z,8.53
2023-04-20T03:36:11.358Z,6.83
2023-04-20T03:40:13.776Z,10.50
2023-04-20T03:44:15.721Z,7.47
2023-04-20T03:48:17.784Z,9.70
2023-04-20T03:52:19.748Z,7.10
2023-04-20T03:56:21.632Z,9.17
2023-04-20T04:00:24.573Z,8.13
2023-04-20T04:04:32.424Z,12.40
2023-04-20T04:08:34.542Z,13.13
2023-04-20T04:12:36.539Z,13.13
2023-04-20T04:16:38.732Z,7.13
2023-04-20T04:20:40.911Z,7.80
2023-04-20T04:24:45.070Z,7.53
2023-04-20T04:28:51.890Z,10.40
2023-04-20T04:32:56.175Z,8.17
2023-04-20T04:36:58.279Z,13.37
2023-04-20T04:41:13.293Z,11.13
2023-04-20T04:45:16.514Z,15.00
2023-04-20T04:49:20.481Z,12.57
2023-04-20T04:53:22.853Z,16.60
2023-04-20T04:57:24.919Z,12.97
2023-04-20T05:01:26.791Z,9.70
2023-04-20T05:05:28.860Z,13.27
2023-04-20T05:09:33.593Z,13.13
2023-04-20T05:13:36.047Z,13.90
2023-04-20T05:17:38.174Z,11.57
2023-04-20T05:21:40.460Z,11.10
2023-04-20T05:25:42.869Z,16.77
2023-04-20T05:29:44.944Z,22.00
2023-04-20T05:33:46.913Z,16.10
2023-04-20T05:37:49.377Z,17.17
2023-04-20T05:41:51.278Z,15.40
2023-04-20T05:45:53.061Z,15.50
2023-04-20T05:49:55.072Z,14.60
2023-04-20T05:53:57.021Z,18.27
2023-04-20T05:57:58.817Z,11.70
2023-04-20T06:02:00.773Z,19.30
2023-04-20T06:06:02.692Z,17.80
2023-04-20T06:10:05.767Z,12.33
2023-04-20T06:14:07.589Z,15.07
2023-04-20T06:18:09.695Z,14.33
2023-04-20T06:22:11.886Z,14.80
2023-04-20T06:26:14.042Z,14.93
2023-04-20T06:30:16.270Z,13.63
2023-04-20T06:34:18.135Z,11.10
2023-04-20T06:38:20.575Z,14.67
2023-04-20T06:42:23.300Z,13.47
2023-04-20T06:46:25.535Z,16.23
2023-04-20T06:50:27.716Z,11.70
2023-04-20T06:54:29.830Z,15.80
2023-04-20T06:58:31.741Z,16.90
2023-04-20T07:02:45.999Z,15.70
2023-04-20T07:06:50.585Z,14.60
2023-04-20T07:10:53.955Z,15.13
2023-04-20T07:14:56.027Z,16.00
2023-04-20T07:18:57.932Z,15.40
2023-04-20T07:23:00.059Z,15.23
2023-04-20T07:27:02.719Z,17.57
2023-04-20T07:31:04.918Z,14.07
2023-04-20T07:35:07.518Z,15.03
2023-04-20T07:39:09.778Z,13.73
2023-04-20T07:43:11.835Z,20.03
2023-04-20T07:47:13.767Z,17.33
2023-04-20T07:51:15.989Z,15.40
2023-04-20T07:55:18.217Z,17.23
2023-04-20T07:59:20.594Z,16.77
2023-04-20T08:03:22.769Z,18.87
2023-04-20T08:07:25.142Z,16.70
2023-04-20T08:11:27.156Z,19.50
2023-04-20T08:15:29.321Z,20.77
2023-04-20T08:19:31.241Z,20.63
2023-04-20T08:23:33.269Z,21.37
2023-04-20T08:27:35.429Z,20.67
2023-04-20T08:31:37.608Z,22.20
2023-04-20T08:35:39.683Z,19.30
2023-04-20T08:39:41.642Z,21.10
2023-04-20T08:43:43.673Z,19.70
2023-04-20T08:47:45.997Z,22.27
2023-04-20T08:51:49.001Z,20.63
2023-04-20T08:55:51.359Z,21.37
2023-04-20T08:59:53.487Z,23.30
2023-04-20T09:03:55.877Z,22.13
2023-04-20T09:08:01.066Z,23.03
2023-04-20T09:12:06.868Z,21.27
2023-04-20T09:16:13.595Z,23.47
2023-04-20T09:20:15.610Z,24.63
2023-04-20T09:24:19.476Z,22.73
2023-04-20T09:28:22.113Z,23.57
2023-04-20T09:32:25.340Z,22.30
2023-04-20T09:36:37.582Z,22.60
2023-04-20T09:40:39.567Z,21.27
2023-04-20T09:44:43.419Z,23.37
2023-04-20T09:48:45.773Z,23.77
2023-04-20T09:52:49.250Z,22.07
2023-04-20T09:56:51.933Z,23.97
2023-04-20T10:00:53.977Z,22.07
2023-04-20T10:04:57.143Z,21.03
2023-04-20T10:09:02.949Z,21.63
2023-04-20T10:13:04.934Z,20.80
2023-04-20T10:17:09.342Z,19.90
2023-04-20T10:21:13.584Z,19.80
2023-04-20T10:25:21.405Z,19.90
2023-04-20T10:29:27.004Z,20.33
2023-04-20T10:33:29.142Z,17.60
2023-04-20T10:37:32.436Z,19.77
2023-04-20T10:41:34.923Z,16.13
2023-04-20T10:45:38.674Z,19.73
2023-04-20T10:49:41.127Z,17.23
2023-04-20T10:53:43.199Z,16.83
2023-04-20T10:57:45.534Z,18.10
2023-04-20T11:01:48.536Z,17.00
2023-04-20T11:05:51.855Z,17.93
2023-04-20T11:09:56.402Z,16.93
2023-04-20T11:14:09.359Z,18.57
2023-04-20T11:18:12.228Z,14.07
2023-04-20T11:22:23.480Z,13.00
2023-04-20T11:26:35.712Z,13.47
2023-04-20T11:30:41.845Z,12.40
2023-04-20T11:34:46.108Z,12.07
2023-04-20T11:38:49.222Z,12.27
2023-04-20T11:42:51.573Z,9.57
2023-04-20T11:46:54.840Z,9.43
2023-04-20T11:50:57.522Z,8.77
2023-04-20T11:55:00.188Z,7.33
2023-04-20T11:59:02.098Z,7.30
2023-04-20T12:03:04.148Z,11.40
2023-04-20T12:07:06.160Z,7.23
2023-04-20T12:11:08.226Z,6.60
2023-04-20T12:15:10.502Z,7.47
2023-04-20T12:19:12.632Z,7.10
2023-04-20T12:23:14.438Z,6.63
2023-04-20T12:27:16.804Z,6.83
2023-04-20T12:31:18.822Z,6.83
2023-04-20T12:35:21.202Z,8.80
2023-04-20T12:39:23.759Z,7.90
2023-04-20T12:43:25.823Z,8.97
2023-04-20T12:47:27.928Z,9.60
2023-04-20T12:51:29.924Z,15.70
2023-04-20T12:55:31.961Z,10.73
2023-04-20T12:59:33.796Z,9.47
2023-04-20T13:03:35.922Z,12.20
2023-04-20T13:07:38.168Z,26.33
2023-04-20T13:11:40.340Z,16.93
2023-04-20T13:15:42.349Z,23.83
2023-04-20T13:19:47.271Z,31.63
2023-04-20T13:23:49.238Z,12.00
2023-04-20T13:27:51.659Z,14.37
2023-04-20T13:31:53.825Z,12.60
2023-04-20T13:35:56.870Z,15.50
2023-04-20T13:39:59.746Z,10.20
2023-04-20T13:44:01.723Z,10.67
2023-04-20T13:48:03.874Z,10.77
2023-04-20T13:52:05.921Z,10.60
2023-04-20T13:56:08.143Z,10.63
2023-04-20T14:00:10.762Z,12.90
2023-04-20T14:04:13.184Z,11.00
2023-04-20T14:08:15.761Z,11.33
2023-04-20T14:12:17.728Z,12.77
2023-04-20T14:16:19.603Z,13.07
2023-04-20T14:20:21.788Z,13.70
2023-04-20T14:24:23.704Z,14.07
2023-04-20T14:28:25.984Z,14.37
2023-04-20T14:32:27.977Z,12.43
2023-04-20T14:36:30.610Z,12.83
2023-04-20T14:40:32.804Z,16.30
2023-04-20T14:44:34.557Z,16.07
2023-04-20T14:48:38.268Z,13.90
2023-04-20T14:52:40.634Z,14.27
2023-04-20T14:56:42.500Z,21.57
2023-04-20T15:00:45.308Z,16.03
2023-04-20T15:04:49.794Z,24.47
2023-04-20T15:08:56.370Z,20.27
2023-04-20T15:12:58.321Z,22.63
2023-04-20T15:17:00.455Z,26.67
2023-04-20T15:21:02.461Z,107.73
2023-04-20T15:25:05.468Z,19.97
2023-04-20T15:29:07.519Z,29.87
2023-04-20T15:33:09.616Z,25.17
2023-04-20T15:37:11.452Z,33.53
2023-04-20T15:41:13.711Z,19.13
2023-04-20T15:45:15.935Z,20.57
2023-04-20T15:49:21.000Z,17.37
2023-04-20T15:53:23.129Z,18.60
2023-04-20T15:57:24.963Z,20.13
2023-04-20T16:01:26.911Z,16.50
2023-04-20T16:05:30.214Z,20.00
2023-04-20T16:09:32.171Z,20.63
2023-04-20T16:13:35.160Z,18.30
2023-04-20T16:17:36.997Z,20.90
2023-04-20T16:21:39.293Z,22.23
2023-04-20T16:25:41.438Z,24.50
2023-04-20T16:29:43.439Z,20.80
2023-04-20T16:33:45.386Z,21.53
2023-04-20T16:37:47.422Z,17.90
2023-04-20T16:41:49.439Z,25.00
2023-04-20T16:45:51.228Z,32.03
2023-04-20T16:49:53.226Z,42.60
2023-04-20T16:53:55.153Z,52.20
2023-04-20T16:58:00.244Z,37.63
2023-04-20T17:02:02.344Z,33.77
2023-04-20T17:06:07.544Z,30.40
2023-04-20T17:10:09.785Z,20.60
2023-04-20T17:14:11.598Z,20.40
2023-04-20T17:18:13.618Z,19.83
2023-04-20T17:22:15.927Z,20.77
2023-04-20T17:26:17.910Z,20.93
2023-04-20T17:30:20.548Z,27.67
2023-04-20T17:34:23.295Z,26.27
2023-04-20T17:38:25.247Z,26.13
2023-04-20T17:42:27.479Z,37.30
2023-04-20T17:46:29.755Z,27.93
2023-04-20T17:50:31.861Z,19.97
2023-04-20T17:54:34.074Z,20.97
2023-04-20T17:58:36.190Z,23.03
2023-04-20T18:02:38.744Z,21.50
2023-04-20T18:06:40.749Z,20.40
2023-04-20T18:10:42.926Z,18.50
2023-04-20T18:14:45.511Z,20.43
2023-04-20T18:18:47.473Z,20.50
2023-04-20T18:22:50.643Z,26.43
2023-04-20T18:26:53.201Z,23.20
2023-04-20T18:30:57.671Z,22.00
2023-04-20T18:35:00.873Z,20.37
2023-04-20T18:39:03.865Z,26.30
2023-04-20T18:43:05.898Z,24.83
2023-04-20T18:47:07.835Z,31.63
2023-04-20T18:51:12.997Z,27.83
2023-04-20T18:55:15.132Z,27.00
2023-04-20T18:59:17.196Z,35.43
2023-04-20T19:03:19.441Z,26.10
2023-04-20T19:07:21.541Z,22.93
2023-04-20T19:11:23.791Z,24.43
2023-04-20T19:15:26.292Z,27.00
2023-04-20T19:19:28.581Z,27.90
2023-04-20T19:23:30.644Z,32.77
2023-04-20T19:27:32.785Z,25.20
2023-04-20T19:31:37.828Z,28.47
2023-04-20T19:35:41.808Z,25.10
2023-04-20T19:39:43.808Z,23.63
2023-04-20T19:43:45.973Z,25.57
2023-04-20T19:47:48.166Z,26.53
2023-04-20T19:51:50.303Z,27.27
2023-04-20T19:55:52.312Z,31.57
2023-04-20T19:59:54.353Z,45.33
2023-04-20T20:03:56.711Z,44.97
2023-04-20T20:07:58.945Z,41.23
2023-04-20T20:12:02.069Z,37.87
2023-04-20T20:16:04.744Z,38.03
2023-04-20T20:20:07.594Z,31.83
2023-04-20T20:24:09.792Z,29.33
2023-04-20T20:28:11.847Z,27.33
2023-04-20T20:32:13.858Z,28.30
2023-04-20T20:36:17.714Z,28.87
2023-04-20T20:40:19.767Z,32.63
2023-04-20T20:44:21.662Z,30.70
2023-04-20T20:48:23.669Z,30.27
2023-04-20T20:52:25.964Z,32.63
2023-04-20T20:56:27.842Z,30.00
2023-04-20T21:00:30.020Z,31.40
2023-04-20T21:04:32.156Z,35.73
2023-04-20T21:08:34.607Z,34.77
2023-04-20T21:12:36.562Z,32.90
2023-04-20T21:16:38.487Z,35.87
2023-04-20T21:20:40.419Z,37.43
2023-04-20T21:24:42.311Z,36.17
2023-04-20T21:28:44.570Z,33.20
2023-04-20T21:32:46.726Z,34.80
2023-04-20T21:36:48.736Z,32.07
2023-04-20T21:40:50.615Z,36.53
2023-04-20T21:44:52.529Z,34.83
2023-04-20T21:48:54.412Z,36.27
2023-04-20T21:52:56.459Z,31.90
2023-04-20T21:56:58.462Z,32.83
2023-04-20T22:01:00.560Z,31.87
2023-04-20T22:05:02.564Z,50.87
2023-04-20T22:09:04.929Z,39.20
2023-04-20T22:13:06.909Z,39.30
2023-04-20T22:17:09.538Z,32.67
2023-04-20T22:21:11.462Z,33.47
2023-04-20T22:25:13.574Z,30.87
2023-04-20T22:29:15.623Z,30.40
2023-04-20T22:33:17.729Z,34.37
2023-04-20T22:37:19.756Z,31.97
2023-04-20T22:41:21.738Z,32.47
2023-04-20T22:45:23.804Z,36.83
2023-04-20T22:49:26.980Z,40.50
2023-04-20T22:53:30.137Z,39.53
2023-04-20T22:57:32.005Z,38.67
2023-04-20T23:01:33.989Z,37.90
2023-04-20T23:05:35.881Z,37.77
2023-04-20T23:09:39.947Z,35.47
2023-04-20T23:13:42.302Z,35.53
2023-04-20T23:17:44.281Z,35.63
2023-04-20T23:21:46.219Z,34.57
2023-04-20T23:25:48.286Z,34.80
2023-04-20T23:29:50.940Z,30.57
2023-04-20T23:33:53.012Z,31.03
2023-04-20T23:37:55.509Z,28.83
2023-04-20T23:41:57.836Z,30.07
2023-04-20T23:45:59.606Z,29.50
2023-04-20T23:50:01.725Z,30.53
2023-04-20T23:54:03.839Z,31.30
2023-04-20T23:58:06.216Z,33.43
